Raynesford, MT (59469)

11:53 PM MDT on July 23, 2016 (GMT -0600)
| | Change Station

Elev -9999 ft 0.00 °N, 0.00 °E | Updated

Clear
Clear
54 °F
Feels Like 54 °F
N
6
Wind Variable Wind from SW
Gusts mph

Today
High -- | Low -- °F
--% Chance of Precip.
Yesterday
High -- | Low -- °F
Precip. -- in
Pressure 30.04 in
Visibility 10.0 miles
Clouds Scattered Clouds 10000 ft
Dew Point 41 °F
Humidity 61%
Rainfall --
Snow Depth Not available.
5:51 AM 9:06 PM
Waning Gibbous, 79% visible
METAR KGFA 240458Z AUTO 33004KT 10SM SCT100 20/03 A3009 RMK AO2 SLP170 T01970027 TSNO $
Pressure 30.04 in
Visibility 10.0 miles
Clouds Scattered Clouds 10000 ft
Dew Point 41 °F
Humidity 61%
Rainfall --
Snow Depth Not available.
5:51 AM 9:06 PM
Waning Gibbous, 79% visible
METAR KGFA 240458Z AUTO 33004KT 10SM SCT100 20/03 A3009 RMK AO2 SLP170 T01970027 TSNO $

10-Day Weather Forecast

Almanac

Astronomy

Jul. 23, 2016 Rise Set
Actual Time
Civil Twilight
Nautical Twilight
Astronomical Twilight
Moon
Length of Visible Light
Length of Day
Tomorrow will be .
, % of the Moon is Illuminated

Today's Extremes

State Highs State Lows

Community

WunderPhotos

Upload Photos

1,927,039 photos uploaded!

WunderBlog® & News

Nearby

Air Quality

  Air Quality AQ Index Pollutant
Not available.

Snow Depth

Station Depth Elevation

Earthquake Activity

City Distance Mag. Time & Date
Minimum magnitude displayed is 2.5.

Coastal Water Temperatures

Place Temperature

Stations

Nearby Weather Stations

Station Location Temp. Windchill Dew Point Humidity Wind Precip. Elev Updated Type
                   

Watches & Warnings

There are currently no watches in effect.